Time;durP1;ratioP1;P1;durP2;ratioP2;P2;SDS_P1;SDS_P2;PMS_P1;PMS_P2;Temp;Humidity;BMP_temperature;BMP_pressure;BME280_temperature;BME280_humidity;BME280_pressure;Samples;Min_cycle;Max_cycle;Signal;HPM_P1;HPM_P2
2021/04/12 00:01:39;;;;;;;0.32;0.28;;;;;;;;;;5116465;28;20034;-73
2021/04/12 00:04:09;;;;;;;0.80;0.40;;;;;;;;;;5098406;28;20023;-73
2021/04/12 00:06:54;;;;;;;1.38;0.73;;;;;;;;;;5116601;28;20458;-74
2021/04/12 00:09:20;;;;;;;;;;;;;;;;;;5117057;28;20102;-73
2021/04/12 00:11:46;;;;;;;0.90;0.40;;;;;;;;;;5116589;28;19962;-72
2021/04/12 00:14:34;;;;;;;1.20;0.50;;;;;;;;;;5098280;28;20027;-73
2021/04/12 00:17:16;;;;;;;1.83;0.50;;;;;;;;;;5098305;28;20024;-73
2021/04/12 00:19:45;;;;;;;0.85;0.30;;;;;;;;;;5116904;28;20430;-73
2021/04/12 00:22:15;;;;;;;0.75;0.38;;;;;;;;;;5098013;28;20023;-73
2021/04/12 00:24:50;;;;;;;1.58;1.00;;;;;;;;;;5117623;28;20074;-73
2021/04/12 00:27:16;;;;;;;3.13;0.43;;;;;;;;;;5100694;28;20049;-73
2021/04/12 00:30:01;;;;;;;1.80;0.40;;;;;;;;;;5120492;28;20035;-73
2021/04/12 00:32:37;;;;;;;1.55;0.30;;;;;;;;;;5121139;28;20027;-74
2021/04/12 00:35:15;;;;;;;0.73;0.50;;;;;;;;;;5123710;28;20027;-73
2021/04/12 00:38:02;;;;;;;1.17;0.35;;;;;;;;;;5105252;28;20076;-73
2021/04/12 00:40:38;;;;;;;1.92;0.40;;;;;;;;;;5100397;28;20048;-73
2021/04/12 00:43:07;;;;;;;1.58;0.30;;;;;;;;;;5117375;28;20078;-73
2021/04/12 00:45:42;;;;;;;1.38;0.40;;;;;;;;;;5117143;28;20019;-73
2021/04/12 00:48:18;;;;;;;1.48;0.45;;;;;;;;;;5103543;28;20032;-73
2021/04/12 00:50:47;;;;;;;1.05;0.40;;;;;;;;;;5099183;28;20028;-73
2021/04/12 00:53:16;;;;;;;1.33;0.40;;;;;;;;;;5098017;28;20035;-73
2021/04/12 00:56:05;;;;;;;0.80;0.40;;;;;;;;;;5097258;28;20019;-73
2021/04/12 00:58:46;;;;;;;0.43;0.30;;;;;;;;;;5089171;28;20065;-73
2021/04/12 01:01:12;;;;;;;0.63;0.40;;;;;;;;;;5115731;28;20032;-74
2021/04/12 01:03:38;;;;;;;4.00;0.50;;;;;;;;;;5115657;28;20043;-74
2021/04/12 01:06:11;;;;;;;1.35;0.32;;;;;;;;;;5115735;28;20471;-73
2021/04/12 01:08:49;;;;;;;0.93;0.40;;;;;;;;;;5115958;28;20027;-73
2021/04/12 01:11:33;;;;;;;0.45;0.30;;;;;;;;;;5098221;28;20031;-73
2021/04/12 01:13:59;;;;;;;;;;;;;;;;;;5117638;28;20024;-73
2021/04/12 01:16:32;;;;;;;1.05;0.45;;;;;;;;;;5097793;28;19999;-74
2021/04/12 01:19:16;;;;;;;0.85;0.40;;;;;;;;;;5098019;28;20086;-73
2021/04/12 01:21:59;;;;;;;1.45;0.40;;;;;;;;;;5098038;28;20024;-73
2021/04/12 01:24:38;;;;;;;0.60;0.32;;;;;;;;;;5123005;28;20020;-74
2021/04/12 01:27:22;;;;;;;3.75;0.50;;;;;;;;;;5119643;28;20027;-73
2021/04/12 01:29:51;;;;;;;0.47;0.30;;;;;;;;;;5115758;28;20035;-73
2021/04/12 01:32:20;;;;;;;0.40;0.20;;;;;;;;;;5096949;28;20062;-73
2021/04/12 01:34:46;;;;;;;1.67;0.43;;;;;;;;;;5115062;28;20024;-74
2021/04/12 01:37:22;;;;;;;1.52;0.30;;;;;;;;;;5096708;28;20027;-73
2021/04/12 01:39:57;;;;;;;1.50;0.32;;;;;;;;;;5096603;28;20130;-72
2021/04/12 01:42:29;;;;;;;1.05;0.20;;;;;;;;;;5114917;28;20024;-73
2021/04/12 01:45:06;;;;;;;1.58;0.40;;;;;;;;;;5096331;28;20043;-73
2021/04/12 01:47:50;;;;;;;1.55;0.50;;;;;;;;;;5114537;28;20023;-73
2021/04/12 01:50:20;;;;;;;0.80;0.35;;;;;;;;;;5096480;28;20028;-73
2021/04/12 01:53:01;;;;;;;0.65;0.30;;;;;;;;;;5096400;28;20081;-73
2021/04/12 01:55:33;;;;;;;1.38;0.45;;;;;;;;;;5096859;28;20073;-73
2021/04/12 01:58:05;;;;;;;1.70;0.40;;;;;;;;;;5098319;28;20039;-73
2021/04/12 02:00:43;;;;;;;2.08;0.45;;;;;;;;;;5102866;28;20040;-73
2021/04/12 02:03:28;;;;;;;0.95;0.30;;;;;;;;;;5116515;28;20367;-73
2021/04/12 02:05:54;;;;;;;;;;;;;;;;;;5115968;28;20069;-73
2021/04/12 02:08:39;;;;;;;0.82;0.20;;;;;;;;;;5096541;28;20275;-73
2021/04/12 02:11:08;;;;;;;1.05;0.30;;;;;;;;;;5096156;28;20424;-73
2021/04/12 02:13:53;;;;;;;0.75;0.38;;;;;;;;;;5114645;28;20032;-72
2021/04/12 02:16:43;;;;;;;0.40;0.20;;;;;;;;;;5095767;28;20123;-72
2021/04/12 02:19:28;;;;;;;0.80;0.30;;;;;;;;;;5096615;28;20073;-73
2021/04/12 02:22:13;;;;;;;4.05;0.50;;;;;;;;;;5095985;28;20486;-74
2021/04/12 02:24:58;;;;;;;1.23;0.38;;;;;;;;;;5096394;28;20379;-73
2021/04/12 02:27:35;;;;;;;1.08;0.40;;;;;;;;;;5114717;28;20055;-72
2021/04/12 02:30:04;;;;;;;1.17;0.28;;;;;;;;;;5114830;28;20030;-72
2021/04/12 02:32:33;;;;;;;1.05;0.40;;;;;;;;;;5101737;28;20034;-73
2021/04/12 02:34:59;;;;;;;1.70;0.38;;;;;;;;;;5102243;28;20058;-73
2021/04/12 02:37:32;;;;;;;1.27;0.35;;;;;;;;;;5097139;28;20037;-73
2021/04/12 02:40:17;;;;;;;1.13;0.47;;;;;;;;;;5115193;28;20031;-72
2021/04/12 02:43:02;;;;;;;1.40;0.75;;;;;;;;;;5114603;28;20049;-73
2021/04/12 02:45:43;;;;;;;0.93;0.38;;;;;;;;;;5114726;28;20455;-73
2021/04/12 02:48:34;;;;;;;0.85;0.32;;;;;;;;;;5099729;28;20032;-73
2021/04/12 02:51:00;;;;;;;2.38;0.43;;;;;;;;;;5099705;28;20023;-73
2021/04/12 02:53:34;;;;;;;0.73;0.32;;;;;;;;;;5117757;28;20394;-73
2021/04/12 02:56:19;;;;;;;0.63;0.20;;;;;;;;;;5099698;28;20027;-73
2021/04/12 02:58:45;;;;;;;1.55;0.28;;;;;;;;;;5118010;28;20115;-73
2021/04/12 03:01:28;;;;;;;0.30;0.25;;;;;;;;;;5099556;28;20059;-73
2021/04/12 03:04:02;;;;;;;0.30;0.30;;;;;;;;;;5118066;28;20027;-73
2021/04/12 03:06:46;;;;;;;1.75;0.30;;;;;;;;;;5118265;28;20516;-74
2021/04/12 03:09:31;;;;;;;0.85;0.30;;;;;;;;;;5099773;28;20034;-74
2021/04/12 03:12:03;;;;;;;0.70;0.30;;;;;;;;;;5104894;28;20039;-73
2021/04/12 03:14:51;;;;;;;0.45;0.30;;;;;;;;;;5102573;28;20034;-73
2021/04/12 03:17:32;;;;;;;2.45;0.22;;;;;;;;;;5099939;28;20443;-73
2021/04/12 03:19:58;;;;;;;3.00;0.30;;;;;;;;;;5117603;28;20494;-73
2021/04/12 03:22:27;;;;;;;0.35;0.20;;;;;;;;;;5118238;28;20027;-73
2021/04/12 03:25:12;;;;;;;1.65;0.88;;;;;;;;;;5118158;28;20016;-73
2021/04/12 03:27:41;;;;;;;2.58;0.50;;;;;;;;;;5099430;28;20020;-73
2021/04/12 03:30:26;;;;;;;0.63;0.30;;;;;;;;;;5099376;28;20491;-73
2021/04/12 03:32:58;;;;;;;0.73;0.35;;;;;;;;;;5099138;28;20394;-74
2021/04/12 03:35:27;;;;;;;0.60;0.20;;;;;;;;;;5116997;28;20027;-73
2021/04/12 03:38:03;;;;;;;0.90;0.30;;;;;;;;;;5098847;28;20490;-73
2021/04/12 03:40:35;;;;;;;0.55;0.25;;;;;;;;;;5117186;28;20062;-72
2021/04/12 03:43:10;;;;;;;1.75;0.20;;;;;;;;;;5099293;28;20443;-73
2021/04/12 03:45:36;;;;;;;1.27;0.73;;;;;;;;;;5118825;28;20024;-73
2021/04/12 03:48:29;;;;;;;1.95;0.50;;;;;;;;;;5123250;28;20016;-73
2021/04/12 03:51:14;;;;;;;1.10;0.30;;;;;;;;;;5122623;28;20015;-73
2021/04/12 03:53:43;;;;;;;4.47;0.30;;;;;;;;;;5105572;28;20032;-73
2021/04/12 03:56:12;;;;;;;3.10;0.40;;;;;;;;;;5105861;28;20020;-73
2021/04/12 03:58:51;;;;;;;13.13;0.60;;;;;;;;;;5123105;28;20023;-73
2021/04/12 07:01:50;;;;;;;1.20;0.40;;;;;;;;;;5482013;22;20051;31
2021/04/12 07:04:34;;;;;;;1.67;0.30;;;;;;;;;;4976296;28;20042;-72
2021/04/12 07:07:19;;;;;;;3.63;0.40;;;;;;;;;;4977109;28;20046;-73
2021/04/12 07:10:04;;;;;;;1.67;0.35;;;;;;;;;;4978343;28;20082;-72
2021/04/12 07:12:48;;;;;;;0.73;0.20;;;;;;;;;;4978974;28;20114;-73
2021/04/12 07:15:24;;;;;;;1.90;0.40;;;;;;;;;;4981047;28;20034;-73
2021/04/12 07:18:09;;;;;;;1.75;0.40;;;;;;;;;;4985448;28;20027;-73
2021/04/12 07:20:53;;;;;;;0.88;0.30;;;;;;;;;;4986405;28;20046;-74
2021/04/12 07:23:38;;;;;;;1.30;0.30;;;;;;;;;;4982572;28;20042;-74
2021/04/12 07:26:10;;;;;;;0.50;0.28;;;;;;;;;;4979850;28;20093;-73
2021/04/12 07:28:42;;;;;;;1.08;0.40;;;;;;;;;;4977364;28;20085;-73
2021/04/12 07:31:16;;;;;;;0.68;0.38;;;;;;;;;;4976914;28;20026;-73
2021/04/12 07:34:05;;;;;;;2.83;0.50;;;;;;;;;;4976990;28;20176;-74
2021/04/12 07:36:50;;;;;;;2.13;0.40;;;;;;;;;;4941166;28;20035;-73
2021/04/12 07:39:28;;;;;;;1.05;0.38;;;;;;;;;;4977753;28;20031;-74
2021/04/12 07:42:13;;;;;;;1.55;0.50;;;;;;;;;;4978139;28;20042;-72
2021/04/12 07:44:58;;;;;;;3.13;0.80;;;;;;;;;;4976816;28;20126;-73
2021/04/12 07:47:24;;;;;;;;;;;;;;;;;;4976866;28;20467;-73
2021/04/12 07:50:10;;;;;;;1.48;0.50;;;;;;;;;;4978709;28;19906;-74
2021/04/12 07:52:39;;;;;;;1.67;0.60;;;;;;;;;;4983329;28;20039;-73
2021/04/12 07:55:16;;;;;;;3.63;0.60;;;;;;;;;;4984187;28;20086;-73
2021/04/12 07:58:01;;;;;;;1.10;0.52;;;;;;;;;;4979575;28;20170;-73
2021/04/12 08:00:46;;;;;;;2.22;0.55;;;;;;;;;;4977645;28;20045;-73
2021/04/12 08:03:31;;;;;;;1.55;0.40;;;;;;;;;;4977964;28;20062;-74
2021/04/12 08:06:08;;;;;;;1.83;0.45;;;;;;;;;;4977648;28;20042;-74
2021/04/12 08:08:44;;;;;;;1.85;0.30;;;;;;;;;;4976146;28;20074;-73
2021/04/12 08:11:30;;;;;;;4.05;0.47;;;;;;;;;;4977390;28;20058;-74
2021/04/12 08:14:15;;;;;;;7.97;1.10;;;;;;;;;;4977063;28;20019;-74
2021/04/12 08:16:59;;;;;;;3.08;0.70;;;;;;;;;;4982392;28;20030;-79
2021/04/12 08:19:37;;;;;;;1.45;0.47;;;;;;;;;;4981559;28;20061;-76
2021/04/12 08:22:21;;;;;;;5.90;1.00;;;;;;;;;;4980502;28;20034;-78
2021/04/12 08:25:15;;;;;;;4.15;0.60;;;;;;;;;;4981598;28;20034;-78
2021/04/12 08:28:17;;;;;;;1.75;0.52;;;;;;;;;;4981847;28;20031;-77
2021/04/12 08:30:43;;;;;;;2.25;0.80;;;;;;;;;;4982758;28;20053;-77
2021/04/12 08:33:35;;;;;;;1.63;0.52;;;;;;;;;;4981678;28;20031;-78
2021/04/12 08:36:01;;;;;;;3.25;0.60;;;;;;;;;;4981790;28;20031;-75
2021/04/12 08:38:30;;;;;;;3.45;0.68;;;;;;;;;;4981661;28;20061;-77
2021/04/12 08:40:56;;;;;;;1.90;0.40;;;;;;;;;;4982326;28;20031;-77
2021/04/12 08:43:37;;;;;;;2.33;0.50;;;;;;;;;;4979568;28;20037;-76
2021/04/12 08:46:22;;;;;;;2.15;0.93;;;;;;;;;;4981485;28;20093;-78
2021/04/12 08:48:57;;;;;;;4.57;0.45;;;;;;;;;;4981485;28;20390;-78
2021/04/12 08:51:26;;;;;;;1.42;0.60;;;;;;;;;;4982616;28;20101;-79
2021/04/12 08:53:58;;;;;;;1.40;0.40;;;;;;;;;;4986817;28;20037;-78
2021/04/12 08:56:33;;;;;;;2.70;0.60;;;;;;;;;;4982554;28;20023;-77
2021/04/12 08:59:02;;;;;;;1.02;0.45;;;;;;;;;;4981658;28;20122;-76
2021/04/12 09:02:06;;;;;;;3.13;0.70;;;;;;;;;;4981455;28;20101;-76
2021/04/12 09:04:32;;;;;;;2.05;0.57;;;;;;;;;;4980930;28;20047;-76
2021/04/12 09:07:17;;;;;;;1.23;0.40;;;;;;;;;;4978679;28;20467;-77
2021/04/12 09:10:01;;;;;;;2.35;0.43;;;;;;;;;;4982433;28;20061;-78
2021/04/12 09:12:34;;;;;;;1.25;0.30;;;;;;;;;;4978872;28;20570;-78
2021/04/12 09:15:26;;;;;;;0.95;0.40;;;;;;;;;;4979589;28;20053;-78
2021/04/12 09:18:10;;;;;;;1.42;0.50;;;;;;;;;;4981538;28;20023;-78
2021/04/12 09:20:55;;;;;;;0.68;0.32;;;;;;;;;;4984770;28;20042;-78
2021/04/12 09:23:21;;;;;;;;;;;;;;;;;;4981329;28;20113;-79
2021/04/12 09:25:55;;;;;;;1.17;0.70;;;;;;;;;;4981392;28;19949;-79
2021/04/12 09:28:21;;;;;;;;;;;;;;;;;;4981137;28;20035;-79
2021/04/12 09:30:54;;;;;;;3.17;0.52;;;;;;;;;;4981306;28;19906;-78
2021/04/12 09:33:36;;;;;;;2.33;0.98;;;;;;;;;;4980810;28;20050;-79
2021/04/12 09:36:28;;;;;;;1.05;0.50;;;;;;;;;;4984035;28;20030;-79
2021/04/12 09:38:54;;;;;;;1.10;0.50;;;;;;;;;;4953708;28;20035;-79
2021/04/12 09:41:29;;;;;;;1.25;0.38;;;;;;;;;;4983038;28;20398;-79
2021/04/12 09:44:24;;;;;;;0.73;0.40;;;;;;;;;;4976765;28;20035;-80
2021/04/12 09:47:09;;;;;;;0.85;0.38;;;;;;;;;;4976722;28;20031;-77
2021/04/12 09:49:54;;;;;;;2.53;0.88;;;;;;;;;;4977660;28;20395;-77
2021/04/12 09:52:23;;;;;;;3.65;1.27;;;;;;;;;;4979488;28;20037;-79
2021/04/12 09:54:55;;;;;;;1.10;0.40;;;;;;;;;;4983286;28;20058;-78
2021/04/12 09:57:21;;;;;;;0.65;0.40;;;;;;;;;;4989680;28;20054;-78
2021/04/12 09:59:56;;;;;;;1.10;0.40;;;;;;;;;;4991243;28;20479;-77
2021/04/12 10:02:41;;;;;;;2.50;0.57;;;;;;;;;;4992125;28;20118;-80
2021/04/12 10:05:16;;;;;;;1.85;0.52;;;;;;;;;;4994084;28;20031;-78
2021/04/12 10:07:49;;;;;;;1.23;0.50;;;;;;;;;;4982293;28;20497;-79
2021/04/12 10:10:20;;;;;;;1.05;0.25;;;;;;;;;;4981435;28;20034;-78
2021/04/12 10:12:49;;;;;;;2.92;0.40;;;;;;;;;;4981781;28;20027;-79
2021/04/12 10:15:31;;;;;;;1.50;0.50;;;;;;;;;;4980997;28;20038;-75
2021/04/12 10:18:20;;;;;;;1.98;0.50;;;;;;;;;;4979844;28;20078;-74
2021/04/12 10:20:50;;;;;;;0.35;0.32;;;;;;;;;;4977950;28;20049;-73
2021/04/12 10:23:16;;;;;;;4.07;0.73;;;;;;;;;;4977947;28;20437;-74
2021/04/12 10:26:01;;;;;;;1.67;0.50;;;;;;;;;;4977922;28;20493;-73
2021/04/12 10:28:28;;;;;;;4.60;0.50;;;;;;;;;;4979970;28;20031;-74
2021/04/12 10:31:17;;;;;;;2.22;0.40;;;;;;;;;;4980530;28;20106;-75
2021/04/12 10:33:44;;;;;;;0.82;0.30;;;;;;;;;;4981390;28;20039;-77
2021/04/12 10:36:28;;;;;;;2.58;0.50;;;;;;;;;;4988562;28;20466;-79
2021/04/12 10:39:20;;;;;;;0.95;0.38;;;;;;;;;;4993583;28;20039;-78
2021/04/12 10:41:49;;;;;;;3.35;0.40;;;;;;;;;;4983581;28;20037;-75
2021/04/12 10:44:29;;;;;;;3.10;0.52;;;;;;;;;;4985518;28;20078;-74
2021/04/12 10:47:05;;;;;;;1.27;0.40;;;;;;;;;;4985123;28;20050;-73
2021/04/12 10:49:31;;;;;;;3.72;0.40;;;;;;;;;;4979645;28;20041;-73
2021/04/12 10:52:23;;;;;;;2.83;0.38;;;;;;;;;;4977759;28;20426;-72
2021/04/12 10:54:53;;;;;;;1.10;0.40;;;;;;;;;;4975928;28;20122;-74
2021/04/12 10:57:40;;;;;;;1.77;0.50;;;;;;;;;;4980034;28;20026;-74
2021/04/12 11:00:24;;;;;;;2.67;0.57;;;;;;;;;;4981232;28;20034;-73
2021/04/12 11:03:16;;;;;;;2.70;0.50;;;;;;;;;;4983119;28;20057;-75
2021/04/12 11:05:45;;;;;;;0.70;0.30;;;;;;;;;;4956922;28;20039;-74
2021/04/12 11:08:14;;;;;;;0.82;0.30;;;;;;;;;;4963545;29;20046;-73
2021/04/12 11:10:58;;;;;;;2.05;0.30;;;;;;;;;;4964414;29;20043;-74
2021/04/12 11:13:45;;;;;;;1.23;0.40;;;;;;;;;;4965958;29;20523;-73
2021/04/12 11:16:25;;;;;;;0.90;0.40;;;;;;;;;;4965733;29;20487;-75
2021/04/12 11:19:10;;;;;;;2.13;0.30;;;;;;;;;;4967228;29;20102;-77
2021/04/12 11:21:44;;;;;;;2.33;0.40;;;;;;;;;;4966199;29;20031;-77
2021/04/12 11:24:29;;;;;;;1.20;0.40;;;;;;;;;;4959564;29;20043;-79
2021/04/12 11:27:13;;;;;;;2.15;0.45;;;;;;;;;;4961559;29;20032;-78
2021/04/12 11:29:41;;;;;;;1.55;0.38;;;;;;;;;;4957362;29;20108;-74
2021/04/12 11:32:07;;;;;;;0.40;0.20;;;;;;;;;;4957364;29;20110;-75
2021/04/12 11:34:36;;;;;;;1.98;0.50;;;;;;;;;;4957804;29;20074;-74
2021/04/12 11:37:24;;;;;;;0.38;0.30;;;;;;;;;;4957107;29;20062;-74
2021/04/12 11:40:05;;;;;;;1.00;0.30;;;;;;;;;;4972299;28;20039;-77
2021/04/12 11:42:37;;;;;;;1.10;0.57;;;;;;;;;;4982023;28;20046;-84
2021/04/12 11:45:12;;;;;;;1.90;0.50;;;;;;;;;;4983103;28;20027;-77
2021/04/12 11:47:44;;;;;;;0.82;0.35;;;;;;;;;;4977217;28;20463;-73
2021/04/12 11:50:15;;;;;;;6.28;0.50;;;;;;;;;;4979101;28;20030;-75
2021/04/12 11:52:59;;;;;;;4.88;0.45;;;;;;;;;;4978708;28;20026;-73
2021/04/12 11:55:39;;;;;;;1.33;0.50;;;;;;;;;;4976982;28;20026;-74
2021/04/12 11:58:25;;;;;;;3.58;0.40;;;;;;;;;;4977655;28;20066;-74
2021/04/12 12:00:58;;;;;;;0.93;0.20;;;;;;;;;;4978356;28;20027;-74
2021/04/12 12:03:24;;;;;;;0.77;0.30;;;;;;;;;;4976464;28;20074;-74
2021/04/12 12:06:00;;;;;;;0.93;0.30;;;;;;;;;;4976539;28;20046;-74
2021/04/12 12:08:32;;;;;;;4.38;0.40;;;;;;;;;;4979833;28;20062;-75
2021/04/12 12:11:04;;;;;;;1.65;0.30;;;;;;;;;;4983460;28;20506;-75
2021/04/12 12:13:30;;;;;;;5.90;0.40;;;;;;;;;;4978372;28;20022;-74
2021/04/12 12:16:19;;;;;;;3.15;0.40;;;;;;;;;;4977437;28;20073;-72
2021/04/12 12:19:06;;;;;;;1.95;0.65;;;;;;;;;;4975126;28;20502;-75
2021/04/12 12:21:44;;;;;;;0.95;0.38;;;;;;;;;;4975650;28;20521;-73
2021/04/12 12:24:24;;;;;;;6.15;0.85;;;;;;;;;;4977681;28;20077;-79
2021/04/12 12:26:53;;;;;;;3.40;0.30;;;;;;;;;;4976630;28;20026;-75
2021/04/12 12:29:22;;;;;;;1.95;0.70;;;;;;;;;;4977577;28;20035;-75
2021/04/12 12:32:08;;;;;;;2.17;0.65;;;;;;;;;;4977619;28;20058;-76
2021/04/12 12:34:49;;;;;;;0.82;0.30;;;;;;;;;;4956912;28;20043;-75
2021/04/12 12:37:30;;;;;;;2.22;0.40;;;;;;;;;;4977714;28;20109;-74
2021/04/12 12:39:58;;;;;;;2.60;0.60;;;;;;;;;;4976747;28;20034;-75
2021/04/12 12:42:46;;;;;;;4.07;0.40;;;;;;;;;;4977317;28;20426;-75
2021/04/12 12:45:14;;;;;;;1.45;0.50;;;;;;;;;;4977632;28;20422;-75
2021/04/12 12:47:44;;;;;;;1.05;0.30;;;;;;;;;;4975953;28;20034;-75
2021/04/12 12:50:20;;;;;;;1.70;0.40;;;;;;;;;;4977515;28;20062;-75
2021/04/12 12:52:49;;;;;;;1.65;0.60;;;;;;;;;;4977564;28;20026;-75
2021/04/12 12:55:20;;;;;;;2.70;0.60;;;;;;;;;;4976073;28;20031;-75
2021/04/12 12:57:46;;;;;;;1.45;0.40;;;;;;;;;;4976732;28;20110;-74
2021/04/12 13:00:13;;;;;;;2.72;0.43;;;;;;;;;;4975877;28;20038;-73
2021/04/12 13:02:40;;;;;;;2.15;0.30;;;;;;;;;;4976644;28;20484;-75
2021/04/12 13:05:18;;;;;;;2.65;0.50;;;;;;;;;;4975729;28;20034;-74
2021/04/12 13:07:44;;;;;;;2.13;0.50;;;;;;;;;;4977240;28;20118;-75
2021/04/12 13:10:17;;;;;;;1.10;0.45;;;;;;;;;;4974568;28;20550;-72
2021/04/12 13:12:46;;;;;;;1.38;0.45;;;;;;;;;;4974631;28;20034;-73
2021/04/12 13:15:18;;;;;;;0.45;0.30;;;;;;;;;;4974664;28;20031;-72
2021/04/12 13:17:45;;;;;;;0.73;0.40;;;;;;;;;;4976488;28;20390;-73
2021/04/12 13:20:20;;;;;;;0.73;0.40;;;;;;;;;;4978314;28;20038;-74
2021/04/12 13:22:48;;;;;;;1.33;0.40;;;;;;;;;;4978059;28;20025;-74
2021/04/12 13:25:33;;;;;;;0.73;0.25;;;;;;;;;;4976159;28;20093;-74
2021/04/12 13:27:59;;;;;;;;;;;;;;;;;;4978276;28;20042;-77
2021/04/12 13:30:26;;;;;;;1.67;0.40;;;;;;;;;;4978416;28;19910;-74
2021/04/12 13:33:00;;;;;;;4.28;0.32;;;;;;;;;;4976000;28;20026;-74
2021/04/12 13:35:27;;;;;;;1.55;0.47;;;;;;;;;;4975638;28;20110;-74
2021/04/12 13:38:00;;;;;;;1.38;0.60;;;;;;;;;;4976035;28;20035;-75
2021/04/12 13:40:40;;;;;;;2.17;0.37;;;;;;;;;;4974685;28;20187;-72
2021/04/12 13:43:07;;;;;;;1.85;0.47;;;;;;;;;;4974260;28;20110;-72
2021/04/12 13:45:35;;;;;;;2.17;0.45;;;;;;;;;;4975601;28;20375;-72
2021/04/12 13:48:05;;;;;;;1.88;0.52;;;;;;;;;;4973905;28;20027;-72
2021/04/12 13:50:50;;;;;;;3.97;0.60;;;;;;;;;;4974758;28;20034;-72
2021/04/12 13:53:29;;;;;;;0.73;0.40;;;;;;;;;;4974586;28;20039;-73
2021/04/12 13:56:02;;;;;;;7.22;0.50;;;;;;;;;;4975945;28;20579;-74
2021/04/12 13:58:51;;;;;;;1.80;0.50;;;;;;;;;;4978025;28;20106;-74
2021/04/12 14:01:27;;;;;;;2.10;0.22;;;;;;;;;;4973537;28;20035;-74
2021/04/12 14:04:20;;;;;;;3.08;0.40;;;;;;;;;;4982222;28;20058;-72
2021/04/12 14:07:01;;;;;;;2.35;0.50;;;;;;;;;;4981607;28;20039;-76
2021/04/12 14:09:45;;;;;;;2.53;0.43;;;;;;;;;;4984802;28;20058;-74
2021/04/12 14:12:11;;;;;;;;;;;;;;;;;;4983523;28;20442;-74
2021/04/12 14:14:43;;;;;;;3.30;0.40;;;;;;;;;;4979138;28;20432;-73
2021/04/12 14:17:20;;;;;;;0.95;0.40;;;;;;;;;;4975326;28;20113;-72
2021/04/12 14:19:47;;;;;;;2.03;0.50;;;;;;;;;;4973947;28;20035;-74
2021/04/12 14:22:31;;;;;;;1.50;0.50;;;;;;;;;;4976478;28;20031;-75
2021/04/12 14:25:17;;;;;;;1.85;0.60;;;;;;;;;;4977363;28;20023;-78
2021/04/12 14:27:44;;;;;;;1.25;0.40;;;;;;;;;;4967681;28;20039;-77
2021/04/12 14:30:12;;;;;;;0.93;0.30;;;;;;;;;;4958477;28;20440;-74
2021/04/12 14:32:57;;;;;;;0.75;0.35;;;;;;;;;;4974016;28;20078;-75
2021/04/12 14:35:25;;;;;;;1.02;0.57;;;;;;;;;;4974019;28;20054;-74
2021/04/12 14:37:51;;;;;;;0.77;0.40;;;;;;;;;;4974255;28;20035;-74
2021/04/12 14:40:23;;;;;;;2.97;0.65;;;;;;;;;;4974672;28;20038;-74
2021/04/12 14:42:56;;;;;;;1.40;0.38;;;;;;;;;;4976685;28;20033;-73
2021/04/12 14:45:55;;;;;;;0.70;0.40;;;;;;;;;;4979614;28;20450;-73
2021/04/12 14:48:24;;;;;;;1.38;0.40;;;;;;;;;;4948779;28;20043;-73
2021/04/12 14:51:01;;;;;;;1.25;0.50;;;;;;;;;;4977320;28;20063;-73
2021/04/12 14:53:30;;;;;;;3.33;0.40;;;;;;;;;;4978785;28;20026;-74
2021/04/12 14:56:13;;;;;;;1.38;0.40;;;;;;;;;;4978798;28;20027;-74
2021/04/12 14:58:43;;;;;;;1.65;0.50;;;;;;;;;;4980405;28;20042;-78
2021/04/12 15:01:13;;;;;;;1.05;0.40;;;;;;;;;;4980866;28;20054;-76
2021/04/12 15:03:58;;;;;;;0.82;0.20;;;;;;;;;;4981511;28;20069;-76
2021/04/12 15:06:24;;;;;;;;;;;;;;;;;;4981625;28;20035;-76
2021/04/12 15:08:54;;;;;;;1.77;0.60;;;;;;;;;;4979814;28;19913;-77
2021/04/12 15:11:28;;;;;;;1.95;0.43;;;;;;;;;;4979038;28;20459;-75
2021/04/12 15:13:56;;;;;;;3.05;0.40;;;;;;;;;;4978526;28;20030;-74
2021/04/12 15:16:26;;;;;;;2.20;0.43;;;;;;;;;;4980533;28;20018;-75
2021/04/12 15:18:58;;;;;;;0.85;0.40;;;;;;;;;;4979362;28;20027;-75
2021/04/12 15:21:30;;;;;;;4.78;0.30;;;;;;;;;;4977072;28;20019;-73
2021/04/12 15:24:03;;;;;;;1.15;0.32;;;;;;;;;;4982784;28;20042;-74
2021/04/12 15:26:33;;;;;;;2.55;0.43;;;;;;;;;;4983721;28;20029;-74
2021/04/12 15:29:14;;;;;;;3.42;0.43;;;;;;;;;;4979445;28;20033;-73
2021/04/12 15:31:41;;;;;;;1.20;0.32;;;;;;;;;;4981931;28;20027;-74
2021/04/12 15:34:09;;;;;;;1.90;0.40;;;;;;;;;;4978673;28;20364;-73
2021/04/12 15:36:41;;;;;;;2.15;0.40;;;;;;;;;;4977466;28;20027;-74
2021/04/12 15:39:22;;;;;;;2.97;0.77;;;;;;;;;;4976959;28;20126;-71
2021/04/12 15:41:48;;;;;;;1.00;0.40;;;;;;;;;;4976509;28;20077;-73
2021/04/12 15:44:22;;;;;;;2.97;0.50;;;;;;;;;;4977889;28;20031;-71
2021/04/12 15:46:50;;;;;;;1.15;0.40;;;;;;;;;;4976145;28;20027;-72
2021/04/12 15:49:34;;;;;;;3.90;0.68;;;;;;;;;;4976804;28;20125;-71
2021/04/12 15:52:07;;;;;;;1.58;0.55;;;;;;;;;;4976800;28;20027;-72
2021/04/12 15:54:33;;;;;;;1.60;0.55;;;;;;;;;;4976398;28;20018;-72
2021/04/12 15:57:01;;;;;;;2.10;0.85;;;;;;;;;;4977043;28;20082;-71
2021/04/12 15:59:38;;;;;;;1.98;0.45;;;;;;;;;;4977713;28;20121;-73
2021/04/12 16:02:23;;;;;;;1.00;0.35;;;;;;;;;;4976649;28;20040;-72
2021/04/12 16:05:03;;;;;;;3.28;0.47;;;;;;;;;;4977509;28;20077;-73
2021/04/12 16:07:37;;;;;;;1.23;0.50;;;;;;;;;;4976201;28;20030;-73
2021/04/12 16:10:15;;;;;;;1.83;0.50;;;;;;;;;;4977719;28;20027;-74
2021/04/12 16:13:07;;;;;;;2.00;0.50;;;;;;;;;;4978612;28;20054;-73
2021/04/12 16:15:49;;;;;;;2.05;0.60;;;;;;;;;;4975232;28;20038;-73
2021/04/12 16:18:35;;;;;;;1.85;0.50;;;;;;;;;;4977094;28;20031;-73
2021/04/12 16:21:05;;;;;;;2.50;0.70;;;;;;;;;;4977388;28;20035;-75
2021/04/12 16:23:49;;;;;;;1.33;0.50;;;;;;;;;;4979972;28;20035;-74
2021/04/12 16:26:27;;;;;;;0.93;0.40;;;;;;;;;;4976261;28;20122;-74
2021/04/12 16:28:59;;;;;;;4.95;1.10;;;;;;;;;;4977885;28;20270;-73
2021/04/12 16:31:30;;;;;;;2.40;0.60;;;;;;;;;;4976849;28;20019;-72
2021/04/12 16:33:57;;;;;;;0.80;0.43;;;;;;;;;;4979513;28;20034;-74
2021/04/12 16:36:29;;;;;;;2.05;0.30;;;;;;;;;;4983151;28;20038;-75
2021/04/12 16:38:55;;;;;;;1.92;0.50;;;;;;;;;;4978496;28;20054;-73
2021/04/12 16:41:29;;;;;;;1.92;0.73;;;;;;;;;;4977417;28;20414;-71
2021/04/12 16:44:05;;;;;;;1.50;0.60;;;;;;;;;;4976295;28;20508;-73
2021/04/12 16:46:34;;;;;;;1.35;0.45;;;;;;;;;;4978496;28;20034;-75
2021/04/12 16:49:08;;;;;;;3.50;0.50;;;;;;;;;;4981985;28;20455;-73
2021/04/12 16:51:41;;;;;;;1.92;0.50;;;;;;;;;;4979706;28;20046;-75
2021/04/12 16:54:12;;;;;;;3.25;0.50;;;;;;;;;;4980611;28;20367;-75
2021/04/12 16:56:38;;;;;;;2.38;0.52;;;;;;;;;;4971402;28;20106;-75
2021/04/12 16:59:07;;;;;;;0.68;0.50;;;;;;;;;;4977817;28;20058;-75
2021/04/12 17:01:47;;;;;;;2.28;0.60;;;;;;;;;;4984841;28;20030;-75
2021/04/12 17:04:21;;;;;;;0.98;0.40;;;;;;;;;;4987494;28;20483;-76
2021/04/12 17:06:57;;;;;;;1.67;0.50;;;;;;;;;;4986827;28;20027;-76
2021/04/12 17:09:35;;;;;;;1.85;0.43;;;;;;;;;;4987910;28;20022;-75
2021/04/12 17:12:09;;;;;;;1.50;0.45;;;;;;;;;;4985857;28;20029;-76
2021/04/12 17:14:57;;;;;;;2.15;0.63;;;;;;;;;;4985801;28;20027;-75
2021/04/12 17:17:28;;;;;;;3.20;0.47;;;;;;;;;;4978502;28;20030;-73
2021/04/12 17:20:05;;;;;;;3.08;0.60;;;;;;;;;;4978468;28;20122;-76
2021/04/12 17:22:36;;;;;;;1.45;0.40;;;;;;;;;;4983689;28;20027;-78
2021/04/12 17:25:13;;;;;;;3.05;0.52;;;;;;;;;;4983965;28;20121;-75
2021/04/12 17:27:53;;;;;;;3.20;0.77;;;;;;;;;;4985488;28;20027;-77
2021/04/12 17:30:19;;;;;;;2.50;0.75;;;;;;;;;;4987018;28;20062;-76
2021/04/12 17:32:48;;;;;;;2.28;0.63;;;;;;;;;;4985666;28;20058;-79
2021/04/12 17:35:23;;;;;;;1.80;0.50;;;;;;;;;;4979993;28;20057;-79
2021/04/12 17:37:52;;;;;;;1.80;0.40;;;;;;;;;;4978296;28;20027;-79
2021/04/12 17:40:24;;;;;;;4.20;0.50;;;;;;;;;;4978188;28;20062;-78
2021/04/12 17:42:59;;;;;;;2.08;0.70;;;;;;;;;;4979019;28;20030;-78
2021/04/12 17:45:31;;;;;;;1.35;0.50;;;;;;;;;;4977190;28;20094;-79
2021/04/12 17:47:59;;;;;;;1.98;0.45;;;;;;;;;;4978279;28;20348;-75
2021/04/12 17:50:25;;;;;;;1.20;0.50;;;;;;;;;;4976517;28;20034;-77
2021/04/12 17:52:51;;;;;;;1.00;0.50;;;;;;;;;;4977971;28;20375;-79
2021/04/12 17:55:20;;;;;;;1.23;0.50;;;;;;;;;;4977922;28;20026;-75
2021/04/12 17:57:47;;;;;;;1.90;0.50;;;;;;;;;;4978213;28;20037;-78
2021/04/12 18:00:24;;;;;;;2.25;0.70;;;;;;;;;;4977893;28;20072;-75
2021/04/12 18:02:51;;;;;;;2.63;0.60;;;;;;;;;;4979426;28;20031;-76
2021/04/12 18:05:28;;;;;;;1.30;0.47;;;;;;;;;;4980867;28;20059;-76
2021/04/12 18:08:02;;;;;;;4.13;0.70;;;;;;;;;;4980715;28;20466;-74
2021/04/12 18:10:34;;;;;;;1.58;0.50;;;;;;;;;;4977251;28;20034;-76
2021/04/12 18:13:04;;;;;;;0.70;0.50;;;;;;;;;;4978253;28;20029;-77
2021/04/12 18:15:41;;;;;;;3.15;0.60;;;;;;;;;;4977076;28;20030;-76
2021/04/12 18:18:23;;;;;;;0.80;0.40;;;;;;;;;;4980575;28;20467;-76
2021/04/12 18:20:51;;;;;;;1.42;0.60;;;;;;;;;;4980413;28;20126;-77
2021/04/12 18:23:21;;;;;;;2.33;1.13;;;;;;;;;;4979019;28;20022;-76
2021/04/12 18:25:51;;;;;;;1.50;0.45;;;;;;;;;;4980236;28;20019;-77
2021/04/12 18:28:20;;;;;;;1.33;0.47;;;;;;;;;;4980298;28;20109;-77
2021/04/12 18:30:51;;;;;;;1.00;0.47;;;;;;;;;;4980059;28;20031;-76
2021/04/12 18:33:25;;;;;;;1.52;0.60;;;;;;;;;;4978382;28;20129;-77
2021/04/12 18:36:00;;;;;;;1.33;0.80;;;;;;;;;;4979418;28;20364;-76
2021/04/12 18:38:44;;;;;;;4.15;0.60;;;;;;;;;;4980380;28;20023;-76